Terminal Aerodrome Forecast
Issued by NWS Northern Indiana

Home | Current Version | Previous Version | Text Only | Print | Product List | Glossary On
Versions: 1 2 3 4 5 6 7 8 9 10 11 12
782
FTUS43 KIWX 191725
TAFFWA
TAF
KFWA 191725Z 1918/2018 28012G20KT P6SM BKN040
     FM192200 28012G21KT P6SM SCT035
     FM200000 26008KT P6SM SCT150
     FM200900 23008KT P6SM FEW250
     FM201500 22011G20KT P6SM FEW250=

USA.gov is the U.S. government's official web portal to all federal, state and local government web resources and services.